createdAt,value
2024-01-04T00:01:30.092Z,95150.72
2024-01-04T00:03:57.177Z,95155.50
2024-01-04T00:06:24.360Z,95145.59
2024-01-04T00:08:51.549Z,95156.00
2024-01-04T00:11:18.741Z,95153.94
2024-01-04T00:13:45.798Z,95136.22
2024-01-04T00:16:13.609Z,95171.19
2024-01-04T00:18:41.037Z,95174.69
2024-01-04T00:21:08.216Z,95174.69
2024-01-04T00:23:37.098Z,95156.84
2024-01-04T00:26:04.805Z,95167.19
2024-01-04T00:28:31.910Z,95170.22
2024-01-04T00:30:58.932Z,95178.50
2024-01-04T00:33:26.093Z,95186.97
2024-01-04T00:35:53.272Z,95181.06
2024-01-04T00:38:20.382Z,95181.25
2024-01-04T00:40:47.544Z,95184.44
2024-01-04T00:43:14.597Z,95191.28
2024-01-04T00:45:41.639Z,95191.28
2024-01-04T00:48:09.030Z,95181.22
2024-01-04T00:50:36.318Z,95185.03
2024-01-04T00:53:09.553Z,95185.03
2024-01-04T00:55:37.766Z,95186.00
2024-01-04T00:58:05.482Z,95184.91
2024-01-04T01:00:33.121Z,95186.97
2024-01-04T01:03:03.276Z,95181.88
2024-01-04T01:05:30.426Z,95170.88
2024-01-04T01:07:57.665Z,95180.91
2024-01-04T01:10:27.196Z,95188.69
2024-01-04T01:12:54.216Z,95186.66
2024-01-04T01:15:21.361Z,95192.41
2024-01-04T01:17:48.669Z,95197.66
2024-01-04T01:20:15.928Z,95188.56
2024-01-04T01:22:42.956Z,95198.13
2024-01-04T01:25:10.481Z,95201.66
2024-01-04T01:27:38.856Z,95198.63
2024-01-04T01:30:06.771Z,95209.97
2024-01-04T01:32:34.093Z,95208.84
2024-01-04T01:35:01.285Z,95201.34
2024-01-04T01:37:28.422Z,95208.22
2024-01-04T01:39:55.540Z,95216.66
2024-01-04T01:42:22.719Z,95217.66
2024-01-04T01:44:49.960Z,95211.91
2024-01-04T01:47:17.707Z,95211.91
2024-01-04T01:49:45.844Z,95211.91
2024-01-04T01:52:14.086Z,95231.34
2024-01-04T01:54:41.449Z,95228.13
2024-01-04T01:57:10.607Z,95229.06
2024-01-04T01:59:38.976Z,95225.41
2024-01-04T02:02:06.069Z,95227.31
2024-01-04T02:04:33.437Z,95237.38
2024-01-04T02:07:01.156Z,95238.97
2024-01-04T02:09:29.705Z,95240.25
2024-01-04T02:12:15.012Z,95236.88
2024-01-04T02:14:42.286Z,95248.03
2024-01-04T02:17:09.884Z,95243.09
2024-01-04T02:19:37.133Z,95247.88
2024-01-04T02:22:04.500Z,95243.09
2024-01-04T02:24:31.575Z,95267.19
2024-01-04T02:26:58.559Z,95261.09
2024-01-04T02:29:25.887Z,95257.59
2024-01-04T02:31:53.036Z,95260.00
2024-01-04T02:34:20.378Z,95237.19
2024-01-04T02:36:47.643Z,95250.59
2024-01-04T02:39:14.856Z,95253.16
2024-01-04T02:41:41.993Z,95262.72
2024-01-04T02:44:11.936Z,95250.75
2024-01-04T02:46:39.796Z,95258.72
2024-01-04T02:49:07.151Z,95256.00
2024-01-04T02:51:34.363Z,95247.88
2024-01-04T02:54:01.873Z,95243.09
2024-01-04T02:56:30.729Z,95251.69
2024-01-04T02:58:59.048Z,95258.53
2024-01-04T03:01:26.168Z,95251.88
2024-01-04T03:03:54.945Z,95269.22
2024-01-04T03:06:26.437Z,95277.34
2024-01-04T03:08:53.902Z,95280.41
2024-01-04T03:11:21.626Z,95275.28
2024-01-04T03:13:48.744Z,95288.06
2024-01-04T03:16:16.571Z,95293.00
2024-01-04T03:18:43.845Z,95290.13
2024-01-04T03:21:11.636Z,95288.22
2024-01-04T03:23:38.876Z,95272.28
2024-01-04T03:26:06.770Z,95282.50
2024-01-04T03:28:33.934Z,95295.88
2024-01-04T03:31:01.230Z,95298.59
2024-01-04T03:33:28.429Z,95298.25
2024-01-04T03:35:55.796Z,95295.25
2024-01-04T03:38:22.903Z,95310.84
2024-01-04T03:40:49.936Z,95313.09
2024-01-04T03:43:18.108Z,95313.59
2024-01-04T03:45:45.306Z,95305.94
2024-01-04T03:48:12.492Z,95314.41
2024-01-04T03:50:39.601Z,95311.22
2024-01-04T03:53:06.630Z,95324.94
2024-01-04T03:55:33.705Z,95327.63
2024-01-04T03:58:00.784Z,95326.06
2024-01-04T04:00:30.041Z,95341.53
2024-01-04T04:02:57.427Z,95328.09
2024-01-04T04:05:24.565Z,95325.53
2024-01-04T04:07:51.758Z,95330.00
2024-01-04T04:10:18.834Z,95346.13
2024-01-04T04:12:46.036Z,95347.75
2024-01-04T04:15:13.320Z,95355.06
2024-01-04T04:17:40.565Z,95355.69
2024-01-04T04:20:07.988Z,95372.63
2024-01-04T04:22:35.671Z,95372.63
2024-01-04T04:25:02.772Z,95376.81
2024-01-04T04:27:31.123Z,95369.78
2024-01-04T04:30:01.005Z,95371.50
2024-01-04T04:32:28.623Z,95375.44
2024-01-04T04:34:55.836Z,95369.75
2024-01-04T04:37:34.829Z,95379.41
2024-01-04T04:40:08.634Z,95381.09
2024-01-04T04:42:45.594Z,95377.59
2024-01-04T04:45:12.681Z,95390.28
2024-01-04T04:47:39.883Z,95382.94
2024-01-04T04:50:08.078Z,95393.78
2024-01-04T04:52:35.139Z,95392.50
2024-01-04T04:55:10.136Z,95408.28
2024-01-04T04:57:55.804Z,95412.34
2024-01-04T05:00:26.680Z,95411.69
2024-01-04T05:02:54.946Z,95426.19
2024-01-04T05:05:26.124Z,95426.19
2024-01-04T05:08:02.814Z,95422.03
2024-01-04T05:10:39.011Z,95441.34
2024-01-04T05:13:23.427Z,95432.59
2024-01-04T05:15:53.068Z,95438.38
2024-01-04T05:18:28.834Z,95443.31
2024-01-04T05:21:04.333Z,95434.78
2024-01-04T05:23:41.021Z,95433.97
2024-01-04T05:26:15.522Z,95454.00
2024-01-04T05:28:52.833Z,95455.41
2024-01-04T05:31:24.426Z,95459.69
2024-01-04T05:34:08.564Z,95456.03
2024-01-04T05:39:19.466Z,95468.06
2024-01-04T05:41:54.676Z,95477.47
2024-01-04T05:44:27.238Z,95473.56
2024-01-04T05:47:05.124Z,95478.25
2024-01-04T05:49:37.274Z,95477.38
2024-01-04T05:52:06.737Z,95488.31
2024-01-04T05:54:42.920Z,95487.88
2024-01-04T05:57:16.178Z,95491.91
2024-01-04T06:02:35.408Z,95511.03
2024-01-04T06:05:10.588Z,95511.97
2024-01-04T06:07:41.949Z,95501.28
2024-01-04T06:10:15.657Z,95514.84
2024-01-04T06:12:51.416Z,95514.03
2024-01-04T06:15:33.414Z,95519.34
2024-01-04T06:18:03.544Z,95527.66
2024-01-04T06:20:34.797Z,95525.75
2024-01-04T06:23:06.666Z,95527.38
2024-01-04T06:25:37.159Z,95529.38
2024-01-04T06:28:07.507Z,95535.03
2024-01-04T06:30:40.693Z,95539.16
2024-01-04T06:33:10.441Z,95536.75
2024-01-04T06:35:47.955Z,95541.28
2024-01-04T06:38:20.432Z,95534.88
2024-01-04T06:40:56.137Z,95543.00
2024-01-04T06:43:30.792Z,95550.38
2024-01-04T06:46:06.473Z,95560.75
2024-01-04T06:48:37.138Z,95564.22
2024-01-04T06:51:07.614Z,95568.50
2024-01-04T06:53:45.214Z,95564.97
2024-01-04T06:56:17.498Z,95569.38
2024-01-04T06:58:49.807Z,95579.22
2024-01-04T07:01:28.841Z,95577.31
2024-01-04T07:04:01.726Z,95577.31
2024-01-04T07:06:32.929Z,95582.41
2024-01-04T07:09:04.200Z,95585.41
2024-01-04T07:11:32.048Z,95591.00
2024-01-04T07:13:59.027Z,95590.34
2024-01-04T07:16:26.032Z,95596.41
2024-01-04T07:18:53.198Z,95597.31
2024-01-04T07:21:20.236Z,95603.34
2024-01-04T07:23:47.601Z,95600.03
2024-01-04T07:26:14.889Z,95619.47
2024-01-04T07:28:43.133Z,95603.34
2024-01-04T07:31:13.450Z,95615.31
2024-01-04T07:33:47.882Z,95617.34
2024-01-04T07:36:17.111Z,95603.13
2024-01-04T07:39:03.514Z,95614.38
2024-01-04T07:41:46.548Z,95599.88
2024-01-04T07:44:21.892Z,95602.50
2024-01-04T07:46:55.507Z,95606.94
2024-01-04T07:49:25.356Z,95608.72
2024-01-04T07:52:06.482Z,95611.28
2024-01-04T07:54:55.681Z,95594.59
2024-01-04T08:00:28.925Z,95599.03
2024-01-04T08:03:01.229Z,95601.19
2024-01-04T08:05:46.883Z,95612.19
2024-01-04T08:10:57.546Z,95624.38
2024-01-04T08:13:24.650Z,95615.50
2024-01-04T08:15:51.886Z,95623.81
2024-01-04T08:18:24.097Z,95622.72
2024-01-04T08:20:51.441Z,95614.72
2024-01-04T08:23:18.682Z,95622.34
2024-01-04T08:25:45.995Z,95618.56
2024-01-04T08:28:14.294Z,95616.25
2024-01-04T08:30:42.285Z,95623.31
2024-01-04T08:33:10.493Z,95622.63
2024-01-04T08:35:37.782Z,95623.78
2024-01-04T08:38:05.170Z,95618.94
2024-01-04T08:40:32.263Z,95628.81
2024-01-04T08:42:59.364Z,95629.88
2024-01-04T08:45:26.879Z,95635.47
2024-01-04T08:47:54.237Z,95638.53
2024-01-04T08:50:23.137Z,95640.38
2024-01-04T08:52:50.376Z,95629.22
2024-01-04T08:55:19.716Z,95645.56
2024-01-04T08:57:47.724Z,95636.16
2024-01-04T09:00:16.096Z,95642.28
2024-01-04T09:02:44.366Z,95636.94
2024-01-04T09:05:11.618Z,95650.16
2024-01-04T09:07:39.211Z,95652.22
2024-01-04T09:10:07.479Z,95657.63
2024-01-04T09:12:34.853Z,95658.94
2024-01-04T09:15:02.074Z,95658.81
2024-01-04T09:17:29.170Z,95654.50
2024-01-04T09:19:57.363Z,95672.38
2024-01-04T09:22:24.422Z,95665.06
2024-01-04T09:24:51.600Z,95663.09
2024-01-04T09:27:21.050Z,95672.78
2024-01-04T09:29:48.916Z,95665.31
2024-01-04T09:32:16.071Z,95659.34
2024-01-04T09:34:43.382Z,95664.69
2024-01-04T09:37:10.728Z,95660.09
2024-01-04T09:39:38.591Z,95665.97
2024-01-04T09:42:08.068Z,95676.28
2024-01-04T09:44:38.360Z,95670.97
2024-01-04T09:47:10.919Z,95670.97
2024-01-04T09:49:39.454Z,95656.75
2024-01-04T09:52:07.818Z,95687.63
2024-01-04T09:54:36.401Z,95674.38
2024-01-04T09:57:06.214Z,95673.81
2024-01-04T09:59:33.425Z,95683.63
2024-01-04T10:02:08.425Z,95677.31
2024-01-04T10:04:45.420Z,95685.31
2024-01-04T10:07:23.397Z,95677.94
2024-01-04T10:10:19.798Z,95681.47
2024-01-04T10:12:50.135Z,95688.25
2024-01-04T10:15:19.317Z,95693.09
2024-01-04T10:17:47.672Z,95688.81
2024-01-04T10:20:15.695Z,95701.78
2024-01-04T10:22:43.832Z,95687.50
2024-01-04T10:25:13.915Z,95707.84
2024-01-04T10:27:41.397Z,95709.25
2024-01-04T10:30:13.089Z,95704.41
2024-01-04T10:32:40.326Z,95710.63
2024-01-04T10:35:08.334Z,95708.69
2024-01-04T10:37:35.517Z,95711.44
2024-01-04T10:40:07.056Z,95707.75
2024-01-04T10:42:34.315Z,95716.03
2024-01-04T10:45:01.862Z,95698.59
2024-01-04T10:47:29.893Z,95705.41
2024-01-04T10:50:01.650Z,95704.31
2024-01-04T10:52:33.460Z,95711.41
2024-01-04T10:55:01.949Z,95705.19
2024-01-04T10:57:33.007Z,95693.94
2024-01-04T11:00:05.160Z,95708.38
2024-01-04T11:02:35.713Z,95707.88
2024-01-04T11:05:05.727Z,95702.84
2024-01-04T11:07:35.376Z,95702.19
2024-01-04T11:10:02.559Z,95712.88
2024-01-04T11:12:31.450Z,95717.75
2024-01-04T11:14:58.714Z,95709.38
2024-01-04T11:17:42.051Z,95698.38
2024-01-04T11:20:48.490Z,95709.97
2024-01-04T11:23:45.374Z,95710.19
2024-01-04T11:26:35.001Z,95709.97
2024-01-04T11:29:04.750Z,95702.00
2024-01-04T11:31:32.080Z,95697.19
2024-01-04T11:34:04.369Z,95698.44
2024-01-04T11:36:31.769Z,95695.06
2024-01-04T11:38:59.393Z,95700.19
2024-01-04T11:41:37.047Z,95678.94
2024-01-04T11:44:17.397Z,95688.00
2024-01-04T11:46:44.782Z,95685.84
2024-01-04T11:49:17.803Z,95684.47
2024-01-04T11:51:46.936Z,95673.19
2024-01-04T11:54:19.497Z,95671.66
2024-01-04T11:56:48.771Z,95675.78
2024-01-04T11:59:19.975Z,95664.97
2024-01-04T12:01:50.030Z,95667.59
2024-01-04T12:04:19.137Z,95664.13
2024-01-04T12:06:50.052Z,95655.97
2024-01-04T12:09:18.168Z,95672.47
2024-01-04T12:11:59.268Z,95648.50
2024-01-04T12:14:27.602Z,95658.25
2024-01-04T12:16:54.981Z,95661.91
2024-01-04T12:19:22.461Z,95661.91
2024-01-04T12:21:50.544Z,95651.91
2024-01-04T12:24:18.703Z,95636.47
2024-01-04T12:26:47.535Z,95642.22
2024-01-04T12:29:15.821Z,95653.16
2024-01-04T12:31:45.367Z,95655.03
2024-01-04T12:34:13.315Z,95641.00
2024-01-04T12:36:40.728Z,95647.59
2024-01-04T12:39:18.303Z,95645.13
2024-01-04T12:44:18.579Z,95659.47
2024-01-04T12:46:46.221Z,95650.53
2024-01-04T12:49:18.937Z,95659.97
2024-01-04T12:51:48.337Z,95651.50
2024-01-04T12:54:15.653Z,95656.00
2024-01-04T12:56:42.913Z,95659.47
2024-01-04T12:59:11.253Z,95655.31
2024-01-04T13:01:38.675Z,95666.47
2024-01-04T13:04:05.741Z,95658.94
2024-01-04T13:06:33.222Z,95661.34
2024-01-04T13:09:00.675Z,95662.94
2024-01-04T13:11:28.101Z,95672.81
2024-01-04T13:13:55.235Z,95668.44
2024-01-04T13:16:22.307Z,95671.31
2024-01-04T13:18:49.607Z,95676.88
2024-01-04T13:21:17.000Z,95676.56
2024-01-04T13:23:44.271Z,95676.13
2024-01-04T13:26:11.273Z,95671.16
2024-01-04T13:28:38.589Z,95667.34
2024-01-04T13:31:09.760Z,95683.59
2024-01-04T13:33:37.089Z,95660.88
2024-01-04T13:36:08.262Z,95673.66
2024-01-04T13:38:35.498Z,95672.34
2024-01-04T13:41:02.442Z,95666.66
2024-01-04T13:43:29.417Z,95679.97
2024-01-04T13:45:56.443Z,95677.88
2024-01-04T13:48:24.245Z,95687.44
2024-01-04T13:50:51.789Z,95685.34
2024-01-04T13:53:18.901Z,95680.88
2024-01-04T13:55:46.133Z,95685.00
2024-01-04T13:58:13.151Z,95674.22
2024-01-04T14:00:40.865Z,95689.41
2024-01-04T14:03:08.756Z,95691.63
2024-01-04T14:05:37.799Z,95686.69
2024-01-04T14:08:09.574Z,95691.16
2024-01-04T14:10:37.612Z,95689.25
2024-01-04T14:13:04.878Z,95692.75
2024-01-04T14:15:34.203Z,95699.28
2024-01-04T14:18:02.573Z,95692.88
2024-01-04T14:20:30.095Z,95690.00
2024-01-04T14:22:57.531Z,95696.47
2024-01-04T14:25:24.869Z,95693.28
2024-01-04T14:27:51.967Z,95686.25
2024-01-04T14:30:19.579Z,95693.41
2024-01-04T14:32:47.103Z,95688.09
2024-01-04T14:35:15.107Z,95690.31
2024-01-04T14:37:42.389Z,95688.88
2024-01-04T14:40:15.998Z,95685.00
2024-01-04T14:42:42.998Z,95684.91
2024-01-04T14:45:19.512Z,95691.72
2024-01-04T14:47:49.954Z,95690.78
2024-01-04T14:50:20.155Z,95697.28
2024-01-04T14:52:47.432Z,95681.59
2024-01-04T14:55:14.488Z,95685.56
2024-01-04T14:57:45.805Z,95685.03
2024-01-04T15:00:16.328Z,95677.81
2024-01-04T15:02:43.534Z,95678.13
2024-01-04T15:05:11.511Z,95673.31
2024-01-04T15:07:38.874Z,95660.97
2024-01-04T15:10:07.374Z,95671.19
2024-01-04T15:12:34.327Z,95671.81
2024-01-04T15:15:01.740Z,95667.72
2024-01-04T15:17:28.934Z,95671.44
2024-01-04T15:19:56.061Z,95668.38
2024-01-04T15:22:23.242Z,95666.56
2024-01-04T15:24:50.222Z,95657.50
2024-01-04T15:27:17.308Z,95659.84
2024-01-04T15:29:44.353Z,95665.75
2024-01-04T15:32:12.397Z,95656.78
2024-01-04T15:34:39.820Z,95670.91
2024-01-04T15:37:06.889Z,95672.19
2024-01-04T15:39:34.033Z,95665.28
2024-01-04T15:42:01.073Z,95668.69
2024-01-04T15:44:28.117Z,95668.72
2024-01-04T15:46:55.070Z,95672.19
2024-01-04T15:49:23.249Z,95669.31
2024-01-04T15:51:50.584Z,95679.78
2024-01-04T15:54:17.635Z,95670.25
2024-01-04T15:56:44.926Z,95670.97
2024-01-04T15:59:12.574Z,95664.84
2024-01-04T16:01:40.564Z,95667.13
2024-01-04T16:04:08.905Z,95665.94
2024-01-04T16:06:37.795Z,95659.53
2024-01-04T16:09:05.442Z,95659.28
2024-01-04T16:11:32.536Z,95656.19
2024-01-04T16:13:59.533Z,95669.47
2024-01-04T16:16:26.840Z,95661.44
2024-01-04T16:18:54.268Z,95660.41
2024-01-04T16:21:21.415Z,95660.66
2024-01-04T16:23:49.511Z,95652.78
2024-01-04T16:26:18.041Z,95661.59
2024-01-04T16:28:45.211Z,95669.00
2024-01-04T16:31:12.146Z,95666.16
2024-01-04T16:33:39.317Z,95663.34
2024-01-04T16:36:10.970Z,95657.22
2024-01-04T16:38:38.346Z,95659.88
2024-01-04T16:41:11.549Z,95668.72
2024-01-04T16:43:41.398Z,95667.09
2024-01-04T16:46:09.093Z,95675.84
2024-01-04T16:48:36.369Z,95676.34
2024-01-04T16:51:05.581Z,95667.63
2024-01-04T16:53:32.831Z,95669.81
2024-01-04T16:55:59.838Z,95668.19
2024-01-04T16:58:26.887Z,95671.94
2024-01-04T17:00:55.666Z,95677.56
2024-01-04T17:03:22.840Z,95677.13
2024-01-04T17:05:49.970Z,95682.47
2024-01-04T17:08:16.973Z,95683.28
2024-01-04T17:10:43.979Z,95680.59
2024-01-04T17:13:11.378Z,95675.13
2024-01-04T17:15:39.249Z,95664.16
2024-01-04T17:18:06.342Z,95662.28
2024-01-04T17:20:33.472Z,95650.38
2024-01-04T17:23:00.449Z,95654.66
2024-01-04T17:25:27.362Z,95648.59
2024-01-04T17:27:54.454Z,95661.72
2024-01-04T17:30:23.041Z,95653.94
2024-01-04T17:32:51.076Z,95667.59
2024-01-04T17:35:19.274Z,95651.66
2024-01-04T17:37:47.887Z,95662.78
2024-01-04T17:40:15.223Z,95656.63
2024-01-04T17:42:42.346Z,95652.09
2024-01-04T17:45:13.105Z,95656.34
2024-01-04T17:47:42.333Z,95655.31
2024-01-04T17:50:10.292Z,95652.19
2024-01-04T17:52:37.224Z,95660.78
2024-01-04T17:55:07.333Z,95652.59
2024-01-04T17:57:34.344Z,95652.06
2024-01-04T18:00:01.572Z,95650.81
2024-01-04T18:02:28.710Z,95656.31
2024-01-04T18:04:55.756Z,95659.78
2024-01-04T18:07:22.758Z,95654.03
2024-01-04T18:09:49.769Z,95664.31
2024-01-04T18:12:16.778Z,95660.84
2024-01-04T18:14:43.990Z,95671.03
2024-01-04T18:17:11.287Z,95664.97
2024-01-04T18:19:38.447Z,95670.44
2024-01-04T18:22:05.519Z,95654.78
2024-01-04T18:24:32.549Z,95661.19
2024-01-04T18:27:00.163Z,95662.53
2024-01-04T18:29:27.150Z,95662.53
2024-01-04T18:31:54.188Z,95671.78
2024-01-04T18:34:23.960Z,95673.53
2024-01-04T18:36:51.154Z,95663.75
2024-01-04T18:39:18.220Z,95664.56
2024-01-04T18:41:45.370Z,95668.97
2024-01-04T18:44:12.700Z,95652.91
2024-01-04T18:46:39.729Z,95656.94
2024-01-04T18:49:06.973Z,95652.28
2024-01-04T18:51:34.052Z,95643.88
2024-01-04T18:54:02.413Z,95636.38
2024-01-04T18:56:29.498Z,95631.44
2024-01-04T18:58:56.874Z,95626.09
2024-01-04T19:01:24.550Z,95621.41
2024-01-04T19:03:51.877Z,95627.41
2024-01-04T19:06:19.023Z,95619.25
2024-01-04T19:08:46.262Z,95615.25
2024-01-04T19:11:13.298Z,95623.13
2024-01-04T19:13:40.653Z,95619.78
2024-01-04T19:16:10.278Z,95624.06
2024-01-04T19:18:38.101Z,95625.78
2024-01-04T19:21:05.978Z,95613.75
2024-01-04T19:23:33.025Z,95614.97
2024-01-04T19:26:00.204Z,95621.91
2024-01-04T19:28:27.206Z,95612.28
2024-01-04T19:30:54.302Z,95624.03
2024-01-04T19:33:23.317Z,95621.06
2024-01-04T19:35:50.431Z,95625.47
2024-01-04T19:38:17.517Z,95618.25
2024-01-04T19:40:45.508Z,95623.72
2024-01-04T19:43:12.685Z,95623.19
2024-01-04T19:45:39.861Z,95617.69
2024-01-04T19:48:07.317Z,95612.56
2024-01-04T19:50:34.331Z,95612.56
2024-01-04T19:53:01.274Z,95623.88
2024-01-04T19:55:28.380Z,95629.34
2024-01-04T19:57:55.318Z,95620.63
2024-01-04T20:00:22.628Z,95625.56
2024-01-04T20:02:49.766Z,95618.88
2024-01-04T20:05:16.778Z,95619.19
2024-01-04T20:07:44.779Z,95623.19
2024-01-04T20:10:11.961Z,95615.19
2024-01-04T20:12:38.890Z,95618.44
2024-01-04T20:15:06.290Z,95607.31
2024-01-04T20:17:35.101Z,95610.44
2024-01-04T20:20:02.690Z,95610.28
2024-01-04T20:22:29.801Z,95597.59
2024-01-04T20:24:57.385Z,95607.06
2024-01-04T20:27:24.514Z,95605.34
2024-01-04T20:29:51.576Z,95594.75
2024-01-04T20:32:18.802Z,95603.31
2024-01-04T20:34:45.965Z,95591.41
2024-01-04T20:37:15.235Z,95586.88
2024-01-04T20:39:42.436Z,95589.44
2024-01-04T20:42:09.461Z,95589.19
2024-01-04T20:44:36.484Z,95589.47
2024-01-04T20:47:03.791Z,95596.84
2024-01-04T20:49:31.078Z,95596.84
2024-01-04T20:51:58.445Z,95593.50
2024-01-04T20:54:25.681Z,95596.03
2024-01-04T20:56:52.740Z,95585.88
2024-01-04T20:59:19.785Z,95583.44
2024-01-04T21:01:47.805Z,95572.50
2024-01-04T21:04:15.629Z,95582.78
2024-01-04T21:06:46.262Z,95580.53
2024-01-04T21:09:15.739Z,95563.66
2024-01-04T21:11:42.769Z,95561.38
2024-01-04T21:14:09.703Z,95548.28
2024-01-04T21:16:36.646Z,95551.19
2024-01-04T21:19:04.864Z,95553.06
2024-01-04T21:21:31.985Z,95551.69
2024-01-04T21:23:59.206Z,95553.72
2024-01-04T21:26:26.255Z,95549.69
2024-01-04T21:28:53.609Z,95545.00
2024-01-04T21:31:20.658Z,95546.03
2024-01-04T21:33:47.694Z,95540.28
2024-01-04T21:36:18.818Z,95545.91
2024-01-04T21:38:46.334Z,95544.56
2024-01-04T21:41:13.323Z,95542.94
2024-01-04T21:43:40.257Z,95551.59
2024-01-04T21:46:07.776Z,95558.09
2024-01-04T21:48:35.166Z,95545.13
2024-01-04T21:51:02.400Z,95549.66
2024-01-04T21:53:29.455Z,95549.81
2024-01-04T21:55:57.384Z,95538.53
2024-01-04T21:58:24.418Z,95541.75
2024-01-04T22:00:51.560Z,95540.56
2024-01-04T22:03:18.951Z,95529.97
2024-01-04T22:05:46.106Z,95534.63
2024-01-04T22:08:13.095Z,95532.75
2024-01-04T22:10:40.027Z,95537.13
2024-01-04T22:13:07.053Z,95538.19
2024-01-04T22:15:34.143Z,95526.78
2024-01-04T22:18:01.283Z,95524.63
2024-01-04T22:20:28.359Z,95523.56
2024-01-04T22:22:55.392Z,95517.72
2024-01-04T22:25:22.570Z,95517.16
2024-01-04T22:27:49.748Z,95511.41
2024-01-04T22:30:17.176Z,95509.25
2024-01-04T22:32:44.519Z,95506.56
2024-01-04T22:35:11.674Z,95495.75
2024-01-04T22:37:38.635Z,95497.88
2024-01-04T22:40:06.646Z,95485.59
2024-01-04T22:42:33.724Z,95489.84
2024-01-04T22:45:00.817Z,95473.00
2024-01-04T22:47:27.896Z,95475.53
2024-01-04T22:49:55.580Z,95473.97
2024-01-04T22:52:22.662Z,95471.28
2024-01-04T22:54:49.893Z,95482.91
2024-01-04T22:57:17.327Z,95483.72
2024-01-04T22:59:44.376Z,95478.88
2024-01-04T23:02:12.901Z,95480.50
2024-01-04T23:04:40.316Z,95477.16
2024-01-04T23:07:07.363Z,95472.34
2024-01-04T23:09:34.555Z,95477.31
2024-01-04T23:12:01.713Z,95473.81
2024-01-04T23:14:28.769Z,95469.69
2024-01-04T23:16:57.893Z,95466.34
2024-01-04T23:19:25.150Z,95457.94
2024-01-04T23:21:52.279Z,95447.25
2024-01-04T23:24:19.390Z,95442.97
2024-01-04T23:26:46.483Z,95435.81
2024-01-04T23:29:13.657Z,95435.50
2024-01-04T23:31:41.179Z,95441.25
2024-01-04T23:34:08.235Z,95434.59
2024-01-04T23:36:35.500Z,95437.50
2024-01-04T23:39:02.591Z,95434.16
2024-01-04T23:41:29.559Z,95435.19
2024-01-04T23:43:59.484Z,95428.50
2024-01-04T23:46:27.314Z,95432.66
2024-01-04T23:48:54.460Z,95430.00
2024-01-04T23:51:21.602Z,95423.88
2024-01-04T23:53:48.626Z,95416.66
2024-01-04T23:56:15.565Z,95408.50
2024-01-04T23:58:42.518Z,95401.16
